Time;durP1;ratioP1;P1;durP2;ratioP2;P2;SDS_P1;SDS_P2;PMS_P1;PMS_P2;Temp;Humidity;BMP_temperature;BMP_pressure;BME280_temperature;BME280_humidity;BME280_pressure;Samples;Min_cycle;Max_cycle;Signal;HPM_P1;HPM_P2
2021/05/30 00:02:19;;;;;;;12.57;5.90;;;13.70;78.10;;;;;;4975691;28;20159;-73
2021/05/30 00:04:45;;;;;;;9.73;5.03;;;13.70;78.40;;;;;;4958498;28;20525;-74
2021/05/30 00:07:11;;;;;;;8.07;4.95;;;13.70;78.40;;;;;;4973852;28;20031;-74
2021/05/30 00:09:40;;;;;;;11.73;5.25;;;13.60;78.30;;;;;;4975899;28;20026;-73
2021/05/30 00:12:07;;;;;;;9.68;4.80;;;13.60;78.40;;;;;;4973947;28;20398;-74
2021/05/30 00:14:33;;;;;;;9.07;4.70;;;13.60;78.40;;;;;;4975803;28;20491;-72
2021/05/30 00:16:59;;;;;;;9.00;5.72;;;13.50;78.40;;;;;;4975485;28;20041;-72
2021/05/30 00:19:25;;;;;;;10.63;5.55;;;13.50;78.60;;;;;;4954408;29;20369;-75
2021/05/30 00:21:51;;;;;;;9.88;5.13;;;13.50;78.70;;;;;;4956676;29;20144;-73
2021/05/30 00:24:17;;;;;;;9.63;5.32;;;13.50;78.70;;;;;;4955776;29;20106;-73
2021/05/30 00:26:42;;;;;;;9.80;5.38;;;13.40;78.50;;;;;;4937784;29;20460;-74
2021/05/30 00:29:08;;;;;;;8.05;5.05;;;13.40;78.50;;;;;;4954369;29;20037;-74
2021/05/30 00:31:34;;;;;;;12.23;5.22;;;13.30;78.50;;;;;;4954893;29;20107;-73
2021/05/30 00:34:00;;;;;;;10.80;5.15;;;13.20;78.70;;;;;;4955930;29;20027;-74
2021/05/30 00:36:25;;;;;;;12.05;5.78;;;13.20;78.90;;;;;;4955524;29;20114;-73
2021/05/30 00:38:51;;;;;;;10.38;5.20;;;13.20;78.90;;;;;;4956249;29;20490;-74
2021/05/30 00:41:17;;;;;;;8.80;5.05;;;13.10;78.70;;;;;;4955479;29;20075;-74
2021/05/30 00:43:50;;;;;;;12.43;5.35;;;13.10;78.90;;;;;;4956024;29;20031;-74
2021/05/30 00:46:16;;;;;;;13.07;5.60;;;13.10;78.80;;;;;;4955183;29;20185;-73
2021/05/30 00:48:41;;;;;;;12.25;6.05;;;13.10;78.70;;;;;;4938625;29;20031;-74
2021/05/30 00:51:07;;;;;;;9.00;5.65;;;13.10;78.80;;;;;;4938610;29;20114;-74
2021/05/30 00:53:37;;;;;;;10.27;5.15;;;13.10;78.80;;;;;;4954531;29;20035;-74
2021/05/30 00:56:06;;;;;;;9.70;5.65;;;13.00;78.80;;;;;;4955797;29;20504;-74
2021/05/30 00:58:32;;;;;;;10.65;4.90;;;13.00;79.00;;;;;;4955178;29;20027;-74
2021/05/30 01:00:58;;;;;;;11.02;4.90;;;13.00;79.10;;;;;;4955633;29;20038;-73
2021/05/30 01:03:23;;;;;;;11.80;5.70;;;13.00;79.00;;;;;;4937762;29;20472;-73
2021/05/30 01:05:49;;;;;;;10.10;5.75;;;12.90;79.00;;;;;;4954450;29;20027;-73
2021/05/30 01:08:15;;;;;;;10.88;6.13;;;12.90;79.00;;;;;;4954979;29;20031;-73
2021/05/30 01:10:46;;;;;;;13.20;5.88;;;12.90;79.10;;;;;;4955582;29;20031;-73
2021/05/30 01:13:13;;;;;;;11.55;5.35;;;12.80;79.30;;;;;;4953505;29;20027;-74
2021/05/30 01:15:40;;;;;;;10.27;5.55;;;12.80;79.40;;;;;;4955443;29;20051;-74
2021/05/30 01:18:07;;;;;;;11.50;6.38;;;12.80;79.50;;;;;;4955346;29;20123;-73
2021/05/30 01:20:33;;;;;;;11.80;5.57;;;12.80;79.60;;;;;;4972052;28;20051;-74
2021/05/30 01:23:07;;;;;;;11.32;5.93;;;12.80;80.20;;;;;;4957204;28;20026;-73
2021/05/30 01:25:32;;;;;;;13.48;5.80;;;12.80;79.50;;;;;;4974015;28;20031;-73
2021/05/30 01:27:58;;;;;;;12.07;5.75;;;12.70;79.50;;;;;;4974095;28;20086;-73
2021/05/30 01:30:24;;;;;;;10.93;5.78;;;12.70;79.70;;;;;;4974041;28;20082;-73
2021/05/30 01:32:50;;;;;;;11.48;5.85;;;12.70;79.60;;;;;;4974374;28;20375;-74
2021/05/30 01:35:17;;;;;;;10.63;6.25;;;12.60;79.80;;;;;;4972368;28;20026;-73
2021/05/30 01:37:43;;;;;;;12.50;5.60;;;12.60;79.80;;;;;;4972866;28;20197;-73
2021/05/30 01:40:09;;;;;;;12.15;6.15;;;12.60;79.80;;;;;;4974363;28;20390;-74
2021/05/30 01:42:35;;;;;;;12.18;6.60;;;12.60;79.80;;;;;;4956218;28;20320;-73
2021/05/30 01:45:02;;;;;;;12.10;6.88;;;12.50;80.00;;;;;;4974446;28;20551;-74
2021/05/30 01:47:27;;;;;;;13.77;6.78;;;12.50;80.00;;;;;;4972188;28;20054;-73
2021/05/30 01:49:53;;;;;;;15.32;6.93;;;12.50;80.60;;;;;;4973884;28;20077;-73
2021/05/30 01:52:19;;;;;;;16.48;7.47;;;12.50;80.00;;;;;;4973356;28;20045;-74
2021/05/30 01:54:48;;;;;;;11.57;5.97;;;12.50;80.10;;;;;;4972980;28;20050;-73
2021/05/30 01:57:19;;;;;;;13.48;6.03;;;12.40;80.10;;;;;;4973372;28;20035;-74
2021/05/30 01:59:45;;;;;;;16.33;6.75;;;12.40;80.10;;;;;;4973983;28;20026;-74
2021/05/30 02:02:11;;;;;;;13.48;6.45;;;12.30;80.30;;;;;;4973919;28;20026;-73
2021/05/30 02:04:43;;;;;;;12.48;6.22;;;12.30;80.50;;;;;;4971910;28;20038;-73
2021/05/30 02:07:10;;;;;;;11.38;6.10;;;12.40;80.50;;;;;;4973874;28;20106;-74
2021/05/30 02:09:37;;;;;;;14.50;6.68;;;12.40;80.40;;;;;;4972851;28;20034;-73
2021/05/30 02:12:06;;;;;;;16.48;6.43;;;12.40;80.30;;;;;;4973735;28;20030;-73
2021/05/30 02:14:33;;;;;;;8.77;5.32;;;12.40;80.20;;;;;;4972784;28;20026;-73
2021/05/30 02:16:59;;;;;;;12.13;6.38;;;12.40;80.00;;;;;;4973683;28;20041;-74
2021/05/30 02:19:25;;;;;;;13.80;6.88;;;12.30;79.90;;;;;;4970587;28;20051;-73
2021/05/30 02:21:52;;;;;;;13.95;5.95;;;12.30;79.90;;;;;;4973506;28;20034;-73
2021/05/30 02:24:21;;;;;;;13.18;6.20;;;12.30;80.20;;;;;;4955580;28;20045;-74
2021/05/30 02:26:48;;;;;;;13.95;6.72;;;12.30;80.20;;;;;;4972126;28;20031;-73
2021/05/30 02:29:38;;;;;;;12.98;5.50;;;12.30;80.00;;;;;;4973467;28;20475;-74
2021/05/30 02:32:06;;;;;;;10.52;5.20;;;12.20;80.10;;;;;;4956113;28;20019;-74
2021/05/30 02:34:33;;;;;;;12.73;6.50;;;12.20;80.30;;;;;;4972992;28;20030;-74
2021/05/30 02:36:59;;;;;;;10.95;5.72;;;12.20;80.40;;;;;;4973337;28;20109;-73
2021/05/30 02:39:25;;;;;;;12.05;6.07;;;12.20;80.40;;;;;;4971459;28;20113;-74
2021/05/30 02:41:51;;;;;;;13.02;6.13;;;12.20;80.40;;;;;;4973034;28;20095;-73
2021/05/30 02:44:17;;;;;;;11.50;5.60;;;12.10;80.50;;;;;;4972567;28;20030;-76
2021/05/30 02:46:42;;;;;;;14.60;6.63;;;12.10;80.60;;;;;;4971810;28;20034;-73
2021/05/30 02:49:08;;;;;;;12.60;5.63;;;12.10;80.60;;;;;;4971413;28;20023;-74
2021/05/30 02:51:34;;;;;;;12.60;5.78;;;12.00;80.60;;;;;;4972584;28;20455;-74
2021/05/30 02:54:01;;;;;;;12.90;6.00;;;12.00;80.60;;;;;;4972844;28;20027;-74
2021/05/30 02:56:27;;;;;;;11.15;5.40;;;12.00;80.80;;;;;;4955110;28;20386;-74
2021/05/30 02:58:53;;;;;;;10.43;5.55;;;12.00;81.00;;;;;;4972962;28;20026;-74
2021/05/30 03:01:19;;;;;;;10.63;6.10;;;12.00;81.00;;;;;;4972616;28;20026;-73
2021/05/30 03:03:45;;;;;;;11.30;5.95;;;12.00;80.80;;;;;;4971739;28;20536;-74
2021/05/30 03:06:11;;;;;;;8.98;5.60;;;11.90;80.70;;;;;;4971681;28;20054;-73
2021/05/30 03:08:36;;;;;;;10.02;5.80;;;12.00;80.80;;;;;;4971045;28;20490;-73
2021/05/30 03:11:02;;;;;;;12.52;6.47;;;12.00;80.80;;;;;;4973104;28;20034;-74
2021/05/30 03:13:28;;;;;;;12.05;6.15;;;12.00;80.80;;;;;;4972344;28;20034;-74
2021/05/30 03:15:54;;;;;;;14.38;5.93;;;12.00;80.70;;;;;;4973117;28;20139;-73
2021/05/30 03:18:20;;;;;;;10.65;5.80;;;12.00;80.60;;;;;;4970975;28;20119;-74
2021/05/30 03:20:46;;;;;;;13.43;6.10;;;11.90;80.80;;;;;;4972923;28;20058;-73
2021/05/30 03:23:11;;;;;;;11.68;5.72;;;11.90;80.80;;;;;;4972795;28;20379;-74
2021/05/30 03:25:38;;;;;;;12.52;6.15;;;11.90;80.70;;;;;;4972350;28;20034;-72
2021/05/30 03:28:04;;;;;;;13.90;6.03;;;11.90;81.00;;;;;;4971421;28;20034;-73
2021/05/30 03:30:30;;;;;;;10.73;5.47;;;11.90;81.20;;;;;;4971978;28;20061;-74
2021/05/30 03:32:55;;;;;;;17.90;6.65;;;11.90;81.20;;;;;;4972702;28;20062;-73
2021/05/30 03:35:21;;;;;;;12.90;6.43;;;11.90;81.30;;;;;;4971028;28;20118;-74
2021/05/30 03:37:47;;;;;;;10.25;5.88;;;11.90;81.40;;;;;;4972739;28;20031;-74
2021/05/30 03:41:00;;;;;;;13.98;6.10;;;11.90;81.30;;;;;;4972748;28;20039;-74
2021/05/30 03:43:02;;;;;;;11.55;5.90;;;11.90;81.30;;;;;;4966720;28;20464;-73
2021/05/30 03:45:28;;;;;;;10.40;5.45;;;11.90;81.20;;;;;;4971827;28;20033;-73
2021/05/30 03:47:54;;;;;;;13.52;6.05;;;11.90;81.20;;;;;;4971314;28;20023;-73
2021/05/30 03:50:20;;;;;;;14.82;6.95;;;11.80;81.10;;;;;;4971422;28;20459;-73
2021/05/30 03:52:46;;;;;;;14.27;6.60;;;11.80;81.20;;;;;;4970712;28;20149;-74
2021/05/30 03:55:13;;;;;;;12.32;6.38;;;11.90;81.30;;;;;;4971311;28;20463;-73
2021/05/30 03:57:39;;;;;;;11.90;6.25;;;11.80;81.40;;;;;;4971686;28;20399;-74
2021/05/30 04:00:07;;;;;;;15.25;7.65;;;11.80;81.50;;;;;;4973793;28;20027;-73
2021/05/30 04:02:33;;;;;;;13.20;6.82;;;11.80;81.50;;;;;;4974155;28;20023;-73
2021/05/30 04:04:59;;;;;;;13.65;6.47;;;11.80;81.60;;;;;;4976250;28;20372;-73
2021/05/30 04:07:25;;;;;;;10.85;5.93;;;11.90;81.70;;;;;;4973991;28;20023;-74
2021/05/30 04:09:50;;;;;;;12.98;6.50;;;11.80;81.80;;;;;;4975928;28;20033;-73
2021/05/30 04:12:16;;;;;;;13.10;5.70;;;11.80;81.80;;;;;;4975813;28;20450;-73
2021/05/30 04:14:42;;;;;;;14.60;6.75;;;11.80;81.80;;;;;;4974994;28;20022;-73
2021/05/30 04:17:07;;;;;;;15.25;6.75;;;11.70;81.90;;;;;;4974304;28;20030;-73
2021/05/30 04:19:33;;;;;;;13.32;6.43;;;11.70;82.00;;;;;;4975113;28;20046;-73
2021/05/30 04:21:59;;;;;;;11.55;6.15;;;11.80;81.90;;;;;;4974304;28;20026;-73
2021/05/30 04:24:24;;;;;;;12.85;6.18;;;11.70;81.90;;;;;;4975111;28;20081;-74
2021/05/30 04:26:50;;;;;;;11.40;6.22;;;11.80;82.20;;;;;;4975242;28;20097;-73
2021/05/30 04:29:16;;;;;;;16.20;7.30;;;11.80;82.00;;;;;;4975678;28;20031;-73
2021/05/30 04:31:41;;;;;;;12.30;6.63;;;11.80;82.00;;;;;;4973715;28;20434;-73
2021/05/30 04:34:07;;;;;;;12.43;5.82;;;11.80;82.10;;;;;;4958306;28;20066;-74
2021/05/30 04:36:33;;;;;;;12.30;6.32;;;11.80;82.20;;;;;;4974863;28;20525;-74
2021/05/30 04:38:58;;;;;;;12.15;6.32;;;11.80;82.30;;;;;;4975342;28;20490;-74
2021/05/30 04:41:24;;;;;;;11.32;6.13;;;11.80;82.40;;;;;;4975393;28;20034;-75
2021/05/30 04:43:50;;;;;;;10.77;5.43;;;11.80;82.30;;;;;;4957877;28;20019;-73
2021/05/30 04:46:16;;;;;;;10.88;5.85;;;11.90;82.20;;;;;;4973925;28;20469;-73
2021/05/30 04:48:42;;;;;;;13.18;6.93;;;11.90;82.30;;;;;;4974664;28;20031;-74
2021/05/30 04:51:16;;;;;;;12.43;6.43;;;11.90;82.40;;;;;;4975242;28;20023;-73
2021/05/30 04:53:44;;;;;;;12.65;6.07;;;11.90;82.40;;;;;;4973258;28;20478;-73
2021/05/30 04:56:12;;;;;;;11.73;5.97;;;11.90;82.40;;;;;;4974762;28;20435;-73
2021/05/30 04:58:38;;;;;;;13.45;6.75;;;12.00;82.40;;;;;;4957018;28;20054;-73
2021/05/30 05:01:06;;;;;;;14.57;6.78;;;12.00;82.50;;;;;;4973716;28;20471;-74
2021/05/30 05:03:35;;;;;;;11.85;6.38;;;12.00;82.50;;;;;;4974400;28;20027;-74
2021/05/30 05:06:01;;;;;;;17.02;6.80;;;12.00;82.50;;;;;;4974584;28;20046;-73
2021/05/30 05:08:26;;;;;;;11.38;6.47;;;12.00;82.50;;;;;;4974915;28;20487;-74
2021/05/30 05:10:53;;;;;;;14.90;6.20;;;12.00;82.60;;;;;;4974846;28;20031;-73
2021/05/30 05:13:19;;;;;;;11.40;6.75;;;12.10;82.60;;;;;;4974510;28;20486;-73
2021/05/30 05:15:51;;;;;;;12.90;7.28;;;12.10;82.60;;;;;;4973945;28;20038;-74
2021/05/30 05:18:19;;;;;;;12.80;6.70;;;12.10;82.70;;;;;;4974472;28;20061;-73
2021/05/30 05:20:46;;;;;;;12.20;5.72;;;12.10;82.70;;;;;;4953213;29;20109;-74
2021/05/30 05:23:17;;;;;;;13.50;7.20;;;12.10;82.60;;;;;;4954042;29;20482;-73
2021/05/30 05:25:43;;;;;;;;;;;12.10;83.40;;;;;;4953893;29;20023;-74
2021/05/30 05:28:09;;;;;;;13.55;6.32;;;12.00;82.80;;;;;;4954818;29;19910;-72
2021/05/30 05:30:35;;;;;;;12.50;5.97;;;12.10;82.80;;;;;;4954241;29;20028;-74
2021/05/30 05:33:01;;;;;;;13.93;6.32;;;12.10;82.80;;;;;;4955106;29;20357;-73
2021/05/30 05:35:28;;;;;;;11.88;6.43;;;12.20;83.00;;;;;;4937892;29;20027;-73
2021/05/30 05:37:58;;;;;;;11.85;6.28;;;12.20;82.90;;;;;;4954053;29;20038;-73
2021/05/30 05:40:25;;;;;;;13.35;6.78;;;12.20;82.70;;;;;;4953713;29;20023;-73
2021/05/30 05:42:52;;;;;;;13.88;6.80;;;12.20;82.80;;;;;;4953026;29;20038;-73
2021/05/30 05:45:18;;;;;;;13.25;7.10;;;12.30;83.00;;;;;;4954549;29;20027;-73
2021/05/30 05:47:44;;;;;;;11.93;6.57;;;12.30;82.90;;;;;;4952738;29;20027;-73
2021/05/30 05:50:12;;;;;;;14.25;6.53;;;12.40;82.90;;;;;;4953576;29;20387;-73
2021/05/30 05:52:39;;;;;;;12.52;5.88;;;12.40;82.80;;;;;;4936928;29;20353;-74
2021/05/30 05:55:07;;;;;;;14.98;7.05;;;12.40;82.80;;;;;;4954841;29;20049;-74
2021/05/30 05:57:33;;;;;;;14.77;6.45;;;12.40;82.70;;;;;;4952684;29;20027;-74
2021/05/30 05:59:59;;;;;;;13.75;6.55;;;12.50;82.80;;;;;;4954893;29;20527;-74
2021/05/30 06:02:25;;;;;;;14.55;7.03;;;12.50;82.70;;;;;;4954623;29;20054;-73
2021/05/30 06:04:51;;;;;;;15.73;7.55;;;12.50;82.50;;;;;;4952645;29;20372;-74
2021/05/30 06:07:16;;;;;;;12.82;6.85;;;12.50;82.50;;;;;;4953053;29;20027;-74
2021/05/30 06:09:42;;;;;;;13.60;7.43;;;12.60;82.50;;;;;;4936666;29;20028;-74
2021/05/30 06:12:08;;;;;;;20.83;7.47;;;12.60;82.60;;;;;;4954210;29;20023;-73
2021/05/30 06:14:34;;;;;;;15.27;7.03;;;12.60;82.70;;;;;;4953828;29;20035;-72
2021/05/30 06:17:01;;;;;;;14.23;6.65;;;12.70;82.80;;;;;;4954586;29;20114;-73
2021/05/30 06:19:28;;;;;;;13.30;6.78;;;12.70;82.70;;;;;;4957048;28;20081;-73
2021/05/30 06:21:53;;;;;;;11.25;6.72;;;12.80;82.60;;;;;;4972954;28;20047;-74
2021/05/30 06:24:19;;;;;;;14.38;7.10;;;12.80;82.40;;;;;;4971656;28;20050;-74
2021/05/30 06:26:45;;;;;;;15.05;6.97;;;12.80;82.40;;;;;;4971502;28;20089;-73
2021/05/30 06:29:10;;;;;;;15.20;7.53;;;12.80;82.40;;;;;;4972127;28;20031;-73
2021/05/30 06:31:36;;;;;;;14.77;7.60;;;12.90;82.50;;;;;;4971651;28;20026;-73
2021/05/30 06:34:02;;;;;;;13.38;7.05;;;12.90;82.50;;;;;;4973437;28;20019;-73
2021/05/30 06:36:28;;;;;;;15.63;7.13;;;13.00;82.40;;;;;;4973301;28;20029;-74
2021/05/30 06:38:53;;;;;;;12.85;7.05;;;13.00;82.30;;;;;;4972788;28;20681;-74
2021/05/30 06:41:19;;;;;;;16.27;7.65;;;13.00;82.20;;;;;;4973636;28;20459;-74
2021/05/30 06:43:45;;;;;;;13.25;6.75;;;13.10;82.40;;;;;;4972634;28;20034;-73
2021/05/30 06:46:10;;;;;;;14.10;7.93;;;13.10;82.10;;;;;;4973275;28;20030;-74
2021/05/30 06:48:36;;;;;;;14.50;6.20;;;13.20;82.30;;;;;;4972592;28;20042;-74
2021/05/30 06:51:12;;;;;;;12.48;7.40;;;13.20;82.30;;;;;;4973039;28;20109;-74
2021/05/30 06:53:38;;;;;;;12.85;7.13;;;13.20;82.40;;;;;;4955238;28;20062;-74
2021/05/30 06:56:04;;;;;;;15.90;7.57;;;13.30;82.30;;;;;;4973309;28;20078;-74
2021/05/30 06:58:30;;;;;;;13.60;7.80;;;13.30;82.30;;;;;;4972778;28;20098;-74
2021/05/30 07:00:55;;;;;;;16.20;7.30;;;13.40;82.30;;;;;;4972734;28;20027;-74
2021/05/30 07:03:21;;;;;;;14.35;7.60;;;13.40;82.20;;;;;;4954728;28;20471;-73
2021/05/30 07:05:47;;;;;;;12.73;6.70;;;13.40;82.10;;;;;;4971846;28;20035;-74
2021/05/30 07:08:12;;;;;;;16.08;7.88;;;13.50;82.20;;;;;;4972705;28;20030;-74
2021/05/30 07:10:38;;;;;;;15.70;7.95;;;13.60;82.20;;;;;;4970948;28;20069;-73
2021/05/30 07:13:03;;;;;;;14.48;7.43;;;13.60;82.20;;;;;;4973090;28;20102;-73
2021/05/30 07:15:29;;;;;;;13.55;6.90;;;13.60;82.10;;;;;;4973245;28;20146;-74
2021/05/30 07:17:56;;;;;;;15.93;7.35;;;13.70;82.20;;;;;;4972264;28;20031;-73
2021/05/30 07:20:21;;;;;;;15.45;7.00;;;13.70;82.00;;;;;;4972343;28;20058;-74
2021/05/30 07:22:47;;;;;;;13.15;6.93;;;13.70;81.80;;;;;;4954816;28;20023;-73
2021/05/30 07:25:13;;;;;;;15.48;6.93;;;13.70;81.80;;;;;;4971585;28;20023;-73
2021/05/30 07:27:39;;;;;;;15.25;6.93;;;13.80;81.70;;;;;;4972012;28;20027;-74
2021/05/30 07:30:15;;;;;;;14.82;6.72;;;13.80;81.70;;;;;;4971394;28;20034;-74
2021/05/30 07:32:41;;;;;;;16.33;7.75;;;13.90;81.70;;;;;;4972028;28;20102;-73
2021/05/30 07:35:07;;;;;;;13.23;7.10;;;13.90;81.60;;;;;;4974452;28;20111;-74
2021/05/30 07:37:32;;;;;;;13.93;6.90;;;13.90;81.40;;;;;;4975090;28;20043;-73
2021/05/30 07:39:58;;;;;;;12.70;6.72;;;14.00;81.20;;;;;;4974722;28;20023;-73
2021/05/30 07:42:24;;;;;;;15.52;7.28;;;14.00;81.10;;;;;;4975474;28;20034;-74
2021/05/30 07:44:49;;;;;;;17.45;8.07;;;14.10;80.70;;;;;;4975395;28;20023;-74
2021/05/30 07:47:15;;;;;;;15.88;7.00;;;14.10;80.70;;;;;;4976075;28;20027;-73
2021/05/30 07:49:41;;;;;;;13.27;7.15;;;14.20;80.80;;;;;;4974377;28;20361;-74
2021/05/30 07:52:07;;;;;;;14.82;7.68;;;14.20;80.70;;;;;;4974948;28;20533;-74
2021/05/30 07:54:32;;;;;;;12.90;6.30;;;14.30;80.40;;;;;;4975919;28;20546;-74
2021/05/30 07:56:58;;;;;;;14.77;6.97;;;14.30;80.40;;;;;;4975454;28;20124;-73
2021/05/30 07:59:24;;;;;;;15.65;7.88;;;14.30;80.50;;;;;;4975826;28;20459;-74
2021/05/30 08:01:51;;;;;;;13.40;7.15;;;14.40;80.50;;;;;;4975226;28;20459;-74
2021/05/30 08:04:19;;;;;;;15.57;7.10;;;14.50;80.40;;;;;;4976087;28;20023;-74
2021/05/30 08:06:45;;;;;;;13.25;6.55;;;14.50;80.20;;;;;;4975487;28;20023;-75
2021/05/30 08:09:11;;;;;;;13.68;7.65;;;14.50;80.30;;;;;;4974658;28;20174;-74
2021/05/30 08:11:37;;;;;;;14.68;7.10;;;14.50;80.10;;;;;;4974257;28;20054;-74
2021/05/30 08:14:03;;;;;;;12.57;7.18;;;14.60;80.00;;;;;;4973975;28;20050;-74
2021/05/30 08:16:29;;;;;;;12.02;6.72;;;14.60;79.90;;;;;;4974473;28;20081;-74
2021/05/30 08:18:54;;;;;;;13.80;7.03;;;14.70;79.90;;;;;;4973886;28;20019;-74
2021/05/30 08:21:20;;;;;;;14.90;7.22;;;14.70;79.80;;;;;;4956570;28;20039;-74
2021/05/30 08:23:46;;;;;;;16.20;7.38;;;14.80;79.80;;;;;;4955943;29;20060;-75
2021/05/30 08:26:12;;;;;;;10.20;6.32;;;14.80;79.60;;;;;;4956404;29;20416;-73
2021/05/30 08:28:38;;;;;;;14.93;7.55;;;14.90;79.60;;;;;;4956612;29;20367;-74
2021/05/30 08:31:04;;;;;;;12.32;6.43;;;14.90;79.60;;;;;;4938352;29;20023;-74
2021/05/30 08:33:30;;;;;;;12.93;7.10;;;15.00;79.60;;;;;;4955943;29;20106;-74
2021/05/30 08:35:56;;;;;;;15.52;7.28;;;15.00;80.10;;;;;;4955407;29;20111;-74
2021/05/30 08:38:23;;;;;;;13.57;7.03;;;15.00;79.30;;;;;;4955865;29;20110;-74
2021/05/30 08:40:49;;;;;;;13.05;7.20;;;15.10;79.20;;;;;;4955515;29;20027;-74
2021/05/30 08:43:15;;;;;;;13.77;7.53;;;15.10;79.10;;;;;;4955816;29;20027;-75
2021/05/30 08:45:45;;;;;;;14.32;7.32;;;15.20;79.10;;;;;;4955820;28;20023;-74
2021/05/30 08:48:11;;;;;;;11.43;6.50;;;15.20;79.00;;;;;;4953945;29;20062;-74
2021/05/30 08:50:37;;;;;;;11.00;6.18;;;15.30;78.90;;;;;;4955948;29;20038;-74
2021/05/30 08:53:05;;;;;;;16.08;6.88;;;15.30;78.70;;;;;;4954032;29;20050;-74
2021/05/30 08:55:30;;;;;;;14.13;6.75;;;15.40;78.60;;;;;;4938813;29;20027;-74
2021/05/30 08:57:57;;;;;;;13.02;7.07;;;15.50;78.20;;;;;;4955469;29;20032;-74
2021/05/30 09:00:28;;;;;;;15.10;7.35;;;15.60;77.90;;;;;;4955474;29;20356;-74
2021/05/30 09:03:13;;;;;;;11.95;6.57;;;15.70;77.60;;;;;;4955313;29;20095;-73
2021/05/30 09:05:40;;;;;;;11.55;6.93;;;15.80;78.00;;;;;;4938404;29;20064;-74
2021/05/30 09:08:06;;;;;;;11.80;6.63;;;15.80;76.30;;;;;;4937614;29;20030;-73
2021/05/30 09:10:32;;;;;;;15.18;7.32;;;15.90;76.10;;;;;;4955506;29;20031;-73
2021/05/30 09:13:14;;;;;;;13.70;6.28;;;16.00;76.20;;;;;;4937666;29;20019;-74
2021/05/30 09:18:18;;;;;;;9.13;4.55;;;16.00;76.10;;;;;;4955500;29;20134;-74
2021/05/30 09:21:03;;;;;;;8.50;4.30;;;16.10;76.10;;;;;;4966078;28;20050;-73
2021/05/30 09:23:31;;;;;;;12.80;4.93;;;16.10;75.60;;;;;;4956976;28;20031;-74
2021/05/30 09:26:20;;;;;;;7.38;4.03;;;16.20;75.40;;;;;;4973618;28;20378;-73
2021/05/30 09:29:09;;;;;;;7.97;3.97;;;16.20;75.10;;;;;;4973242;28;20031;-74
2021/05/30 09:31:59;;;;;;;8.40;4.25;;;16.30;74.20;;;;;;4956858;28;20090;-73
2021/05/30 09:34:33;;;;;;;9.02;4.47;;;16.40;73.10;;;;;;4957077;28;20033;-73
2021/05/30 09:36:59;;;;;;;10.32;4.85;;;16.50;72.50;;;;;;4973635;28;20035;-74
2021/05/30 09:39:39;;;;;;;10.18;5.13;;;16.60;72.10;;;;;;4956874;28;20387;-73
2021/05/30 09:42:40;;;;;;;12.37;5.10;;;16.60;71.90;;;;;;4956259;28;20384;-74
2021/05/30 09:45:09;;;;;;;9.43;5.05;;;16.70;72.10;;;;;;4913925;29;20075;-74
2021/05/30 09:47:46;;;;;;;9.30;5.07;;;16.70;72.30;;;;;;4962927;28;20039;-73
2021/05/30 09:50:18;;;;;;;9.43;4.63;;;16.70;72.20;;;;;;4973701;28;20027;-74
2021/05/30 09:52:52;;;;;;;12.23;5.25;;;16.70;72.30;;;;;;4974086;28;20022;-74
2021/05/30 09:55:28;;;;;;;11.60;5.63;;;16.70;72.10;;;;;;4972883;28;20439;-75
2021/05/30 09:58:24;;;;;;;8.27;5.30;;;16.80;71.50;;;;;;4955808;28;20422;-74
2021/05/30 10:00:56;;;;;;;7.35;3.80;;;16.90;71.20;;;;;;4960089;28;20094;-74
2021/05/30 10:03:22;;;;;;;12.82;4.72;;;16.90;71.00;;;;;;4972731;28;20378;-74
2021/05/30 10:05:48;;;;;;;9.60;5.00;;;16.90;71.00;;;;;;4973855;28;20023;-74
2021/05/30 10:08:18;;;;;;;9.90;5.43;;;17.00;71.00;;;;;;4971609;28;20031;-74
2021/05/30 10:10:45;;;;;;;8.77;4.85;;;17.10;71.10;;;;;;4972402;28;20379;-74
2021/05/30 10:13:11;;;;;;;7.47;4.55;;;17.20;70.70;;;;;;4973078;28;20383;-75
2021/05/30 10:15:38;;;;;;;9.90;4.30;;;17.20;70.20;;;;;;4965754;28;20019;-73
2021/05/30 10:18:23;;;;;;;8.45;4.07;;;17.30;69.40;;;;;;4960471;28;20110;-74
2021/05/30 10:20:52;;;;;;;10.52;4.95;;;17.40;69.10;;;;;;4931440;28;20051;-75
2021/05/30 10:23:18;;;;;;;11.07;5.13;;;17.50;68.90;;;;;;4972941;28;20051;-75
2021/05/30 10:25:45;;;;;;;7.60;3.72;;;17.60;69.00;;;;;;4956202;28;20023;-74
2021/05/30 10:28:29;;;;;;;6.78;4.03;;;17.60;68.90;;;;;;4971343;28;20066;-74
2021/05/30 10:31:16;;;;;;;8.07;4.40;;;17.60;68.50;;;;;;4972629;28;20090;-74
2021/05/30 10:33:42;;;;;;;7.75;3.92;;;17.70;68.10;;;;;;4973061;28;20035;-74
2021/05/30 10:36:12;;;;;;;7.88;4.15;;;17.80;67.40;;;;;;4953686;28;20031;-74
2021/05/30 10:38:43;;;;;;;8.63;3.97;;;17.90;66.90;;;;;;4936084;28;20031;-75
2021/05/30 10:41:15;;;;;;;7.68;3.83;;;18.00;65.90;;;;;;4962642;28;20395;-75
2021/05/30 10:43:42;;;;;;;5.85;3.63;;;18.00;65.80;;;;;;4935430;29;20468;-74
2021/05/30 10:46:08;;;;;;;7.38;4.13;;;18.20;65.00;;;;;;4952383;29;20091;-74
2021/05/30 10:48:35;;;;;;;8.50;4.07;;;18.30;64.20;;;;;;4953034;29;20062;-76
2021/05/30 10:53:38;;;;;;;7.60;3.00;;;18.50;63.90;;;;;;4953582;29;20058;-74
2021/05/30 10:56:23;;;;;;;6.97;3.90;;;18.50;64.20;;;;;;4951974;29;20019;-75
2021/05/30 10:59:16;;;;;;;10.48;4.50;;;18.50;64.00;;;;;;4936530;29;20034;-75
2021/05/30 11:01:44;;;;;;;7.05;3.63;;;18.70;63.80;;;;;;4934341;29;20476;-74
2021/05/30 11:04:25;;;;;;;7.72;3.47;;;18.70;63.70;;;;;;4953218;29;20062;-75
2021/05/30 11:06:54;;;;;;;4.80;3.00;;;18.90;62.80;;;;;;4936369;29;20023;-74
2021/05/30 11:09:21;;;;;;;4.70;2.78;;;19.00;62.70;;;;;;4936710;29;20124;-74
2021/05/30 11:12:44;;;;;;;5.45;3.03;;;19.20;62.10;;;;;;4957704;29;20046;-74
2021/05/30 11:15:11;;;;;;;7.25;3.42;;;19.30;61.60;;;;;;4879132;29;20084;-75
2021/05/30 11:17:57;;;;;;;4.38;2.72;;;19.40;60.70;;;;;;4879401;29;20028;-75
2021/05/30 11:20:24;;;;;;;6.38;3.03;;;19.60;60.60;;;;;;4879474;29;20053;-76
2021/05/30 11:23:02;;;;;;;5.15;2.50;;;19.70;60.50;;;;;;4879611;29;20033;-74
2021/05/30 11:25:38;;;;;;;7.13;3.25;;;20.00;59.60;;;;;;4879556;29;20029;-74
2021/05/30 11:28:11;;;;;;;7.20;3.08;;;20.20;57.70;;;;;;4878950;29;20056;-74
2021/05/30 11:30:53;;;;;;;4.95;2.90;;;20.50;57.60;;;;;;4879892;29;20498;-75
2021/05/30 11:33:22;;;;;;;4.20;2.58;;;20.60;57.50;;;;;;4878616;29;20071;-75
2021/05/30 11:35:59;;;;;;;7.07;2.80;;;20.80;57.80;;;;;;4879132;29;20123;-75
2021/05/30 11:39:10;;;;;;;5.13;2.67;;;21.00;57.70;;;;;;4879369;29;20090;-75
2021/05/30 11:41:52;;;;;;;4.95;2.58;;;21.20;57.10;;;;;;4875062;29;20081;-74
2021/05/30 11:44:22;;;;;;;4.82;2.72;;;21.40;55.70;;;;;;4878146;29;20037;-76
2021/05/30 11:46:57;;;;;;;6.00;2.63;;;21.60;55.30;;;;;;4945878;29;20047;-76
2021/05/30 11:49:28;;;;;;;4.78;2.20;;;21.70;54.70;;;;;;4939516;29;20442;-75
2021/05/30 11:52:00;;;;;;;;;;;21.80;54.00;;;;;;4957418;29;20079;-74
2021/05/30 11:54:29;;;;;;;4.25;2.15;;;21.90;54.00;;;;;;4956866;29;20377;-75
2021/05/30 11:56:58;;;;;;;4.80;2.90;;;22.10;53.30;;;;;;4956910;29;20459;-75
2021/05/30 11:59:43;;;;;;;3.78;2.10;;;22.20;53.20;;;;;;4956497;29;20031;-75
2021/05/30 12:02:10;;;;;;;10.55;4.97;;;22.40;53.40;;;;;;4956626;29;20103;-74
2021/05/30 12:04:39;;;;;;;4.68;2.63;;;22.50;53.20;;;;;;4956743;29;20523;-75
2021/05/30 12:07:11;;;;;;;4.15;2.17;;;22.70;53.10;;;;;;4938674;29;20023;-75
2021/05/30 12:09:45;;;;;;;4.53;2.33;;;22.80;52.10;;;;;;4956624;29;20416;-74
2021/05/30 12:12:49;;;;;;;3.40;1.88;;;23.00;52.00;;;;;;4938758;29;20031;-75
2021/05/30 12:15:14;;;;;;;3.60;2.00;;;23.20;51.00;;;;;;4943957;29;20049;-74
2021/05/30 12:18:06;;;;;;;3.10;1.88;;;23.30;50.20;;;;;;4956729;29;20368;-75
2021/05/30 12:20:35;;;;;;;3.10;1.73;;;23.40;50.30;;;;;;4943368;28;20059;-75
2021/05/30 12:23:12;;;;;;;3.28;1.67;;;23.50;49.40;;;;;;4974794;28;20474;-78
2021/05/30 12:25:48;;;;;;;3.33;1.75;;;23.60;49.40;;;;;;4975777;28;20031;-75
2021/05/30 12:28:14;;;;;;;3.58;1.77;;;23.70;49.10;;;;;;4975196;28;20027;-75
2021/05/30 12:30:39;;;;;;;2.80;1.80;;;23.80;48.00;;;;;;4975577;28;20086;-75
2021/05/30 12:33:05;;;;;;;4.15;2.13;;;23.80;47.00;;;;;;4974823;28;20431;-75
2021/05/30 12:35:46;;;;;;;3.33;2.00;;;23.90;47.70;;;;;;4958394;28;20110;-76
2021/05/30 12:38:14;;;;;;;1.98;1.35;;;24.10;46.90;;;;;;4957627;28;20463;-76
2021/05/30 12:40:41;;;;;;;3.22;1.77;;;24.10;47.40;;;;;;4958506;28;20027;-75
2021/05/30 12:43:07;;;;;;;2.92;1.67;;;24.30;47.10;;;;;;4974861;28;20183;-75
2021/05/30 12:45:33;;;;;;;2.40;1.52;;;24.40;46.60;;;;;;4962273;28;20055;-74
2021/05/30 12:47:59;;;;;;;3.63;1.80;;;24.50;46.10;;;;;;4976385;28;20038;-74
2021/05/30 12:50:24;;;;;;;2.50;1.48;;;24.50;45.60;;;;;;4957635;28;20106;-76
2021/05/30 12:52:54;;;;;;;1.98;1.33;;;24.50;45.20;;;;;;4958011;28;20019;-75
2021/05/30 12:55:23;;;;;;;2.35;2.00;;;24.60;44.70;;;;;;4974622;28;20023;-75